createdAt,value
2019-03-08T00:00:21.195Z,8.80
2019-03-08T00:06:46.539Z,8.80
2019-03-08T00:09:35.417Z,8.90
2019-03-08T00:12:16.604Z,8.90
2019-03-08T00:14:57.288Z,8.90
2019-03-08T00:17:39.479Z,8.90
2019-03-08T00:20:33.541Z,8.90
2019-03-08T00:23:09.686Z,8.80
2019-03-08T00:25:57.122Z,8.80
2019-03-08T00:28:34.431Z,8.90
2019-03-08T00:31:05.246Z,8.80
2019-03-08T00:33:42.504Z,8.80
2019-03-08T00:36:18.166Z,8.90
2019-03-08T00:38:50.616Z,8.90
2019-03-08T00:41:26.537Z,8.80
2019-03-08T00:44:01.511Z,8.80
2019-03-08T00:46:36.713Z,8.70
2019-03-08T00:49:16.613Z,8.70
2019-03-08T00:51:57.893Z,8.60
2019-03-08T00:54:32.652Z,8.60
2019-03-08T00:57:05.437Z,8.50
2019-03-08T00:59:42.614Z,8.50
2019-03-08T01:02:17.460Z,8.50
2019-03-08T01:04:55.987Z,8.40
2019-03-08T01:07:28.801Z,8.40
2019-03-08T01:10:07.506Z,8.30
2019-03-08T01:12:50.375Z,8.30
2019-03-08T01:15:25.623Z,8.30
2019-03-08T01:18:00.629Z,8.30
2019-03-08T01:20:33.520Z,8.20
2019-03-08T01:23:07.549Z,8.10
2019-03-08T01:25:39.701Z,8.10
2019-03-08T01:28:19.775Z,8.10
2019-03-08T01:30:55.991Z,8.10
2019-03-08T01:33:46.929Z,8.10
2019-03-08T01:36:22.839Z,8.10
2019-03-08T01:38:58.861Z,8.00
2019-03-08T01:41:39.134Z,8.00
2019-03-08T01:44:13.058Z,8.00
2019-03-08T01:46:55.605Z,8.00
2019-03-08T01:49:36.227Z,7.90
2019-03-08T01:52:14.350Z,7.90
2019-03-08T01:55:11.127Z,7.90
2019-03-08T01:58:02.794Z,7.90
2019-03-08T02:00:50.168Z,7.80
2019-03-08T02:03:34.780Z,7.80
2019-03-08T02:06:06.874Z,7.80
2019-03-08T02:08:42.383Z,7.80
2019-03-08T02:11:28.065Z,7.80
2019-03-08T02:14:06.224Z,7.80
2019-03-08T02:16:40.142Z,7.80
2019-03-08T02:19:18.550Z,7.70
2019-03-08T02:21:56.240Z,7.60
2019-03-08T02:24:34.827Z,7.60
2019-03-08T02:27:11.647Z,7.60
2019-03-08T02:29:42.960Z,7.70
2019-03-08T02:32:17.755Z,7.70
2019-03-08T02:34:58.228Z,7.70
2019-03-08T02:37:29.666Z,7.70
2019-03-08T02:40:07.037Z,7.60
2019-03-08T02:42:39.854Z,7.70
2019-03-08T02:45:14.163Z,7.70
2019-03-08T02:47:51.407Z,7.70
2019-03-08T02:50:25.605Z,7.60
2019-03-08T02:52:58.180Z,7.60
2019-03-08T02:55:30.474Z,7.50
2019-03-08T02:58:02.704Z,7.50
2019-03-08T03:00:45.579Z,7.50
2019-03-08T03:03:16.620Z,7.50
2019-03-08T03:05:56.495Z,7.50
2019-03-08T03:08:28.167Z,7.40
2019-03-08T03:11:01.864Z,7.50
2019-03-08T03:13:32.790Z,7.50
2019-03-08T03:16:10.596Z,7.50
2019-03-08T03:18:46.377Z,7.40
2019-03-08T03:21:21.651Z,7.50
2019-03-08T03:23:54.444Z,7.40
2019-03-08T03:26:27.219Z,7.40
2019-03-08T03:28:58.489Z,7.40
2019-03-08T03:31:29.614Z,7.40
2019-03-08T03:34:02.952Z,7.40
2019-03-08T03:36:38.559Z,7.40
2019-03-08T03:39:15.579Z,7.40
2019-03-08T03:41:52.315Z,7.40
2019-03-08T03:44:26.318Z,7.40
2019-03-08T03:46:59.116Z,7.40
2019-03-08T03:49:32.716Z,7.40
2019-03-08T03:52:05.816Z,7.50
2019-03-08T03:54:39.579Z,7.40
2019-03-08T03:57:11.277Z,7.50
2019-03-08T03:59:44.862Z,7.40
2019-03-08T04:02:17.577Z,7.40
2019-03-08T04:04:53.941Z,7.40
2019-03-08T04:07:24.826Z,7.40
2019-03-08T04:09:58.847Z,7.30
2019-03-08T04:12:33.563Z,7.40
2019-03-08T04:15:14.751Z,7.30
2019-03-08T04:17:49.731Z,7.30
2019-03-08T04:20:29.539Z,7.30
2019-03-08T04:23:07.790Z,7.40
2019-03-08T04:25:39.094Z,7.40
2019-03-08T04:28:20.032Z,7.40
2019-03-08T04:30:59.098Z,7.30
2019-03-08T04:33:34.670Z,7.30
2019-03-08T04:36:12.381Z,7.30
2019-03-08T04:38:57.833Z,7.40
2019-03-08T04:41:37.920Z,7.40
2019-03-08T04:44:16.226Z,7.40
2019-03-08T04:46:51.210Z,7.30
2019-03-08T04:49:22.734Z,7.30
2019-03-08T04:52:01.037Z,7.30
2019-03-08T04:54:43.184Z,7.40
2019-03-08T04:57:24.475Z,7.40
2019-03-08T05:00:10.029Z,7.40
2019-03-08T05:02:50.068Z,7.60
2019-03-08T05:05:29.108Z,9.10
2019-03-08T05:08:02.011Z,8.50
2019-03-08T05:10:33.728Z,8.00
2019-03-08T05:13:10.579Z,7.80
2019-03-08T05:16:07.979Z,7.60
2019-03-08T05:21:59.955Z,7.40
2019-03-08T05:24:43.157Z,7.40
2019-03-08T05:27:17.869Z,7.30
2019-03-08T05:30:05.763Z,7.30
2019-03-08T05:32:50.884Z,7.30
2019-03-08T05:35:37.318Z,7.30
2019-03-08T05:38:17.715Z,7.30
2019-03-08T05:41:09.175Z,7.30
2019-03-08T05:43:48.775Z,7.40
2019-03-08T05:46:25.437Z,7.40
2019-03-08T05:49:08.361Z,7.40
2019-03-08T05:51:39.489Z,7.40
2019-03-08T05:54:26.793Z,7.50
2019-03-08T05:57:03.836Z,7.50
2019-03-08T05:59:59.590Z,7.50
2019-03-08T06:02:24.955Z,7.50
2019-03-08T06:05:15.819Z,7.30
2019-03-08T06:07:48.542Z,7.50
2019-03-08T06:10:34.249Z,7.50
2019-03-08T06:13:20.520Z,7.40
2019-03-08T06:16:14.899Z,7.40
2019-03-08T06:18:45.847Z,7.50
2019-03-08T06:21:23.398Z,7.50
2019-03-08T06:23:58.854Z,7.50
2019-03-08T06:26:48.457Z,7.50
2019-03-08T06:29:28.915Z,7.50
2019-03-08T06:32:01.793Z,7.50
2019-03-08T06:34:40.424Z,7.50
2019-03-08T06:37:16.159Z,7.50
2019-03-08T06:39:57.252Z,7.50
2019-03-08T06:43:19.925Z,7.60
2019-03-08T06:46:26.751Z,8.00
2019-03-08T06:49:27.962Z,7.60
2019-03-08T06:52:12.289Z,7.70
2019-03-08T06:55:28.842Z,7.60
2019-03-08T06:58:07.627Z,7.60
2019-03-08T07:01:51.897Z,7.60
2019-03-08T07:04:35.646Z,7.60
2019-03-08T07:07:10.019Z,7.60
2019-03-08T07:09:48.464Z,7.70
2019-03-08T07:12:30.805Z,7.70
2019-03-08T07:15:24.977Z,7.70
2019-03-08T07:17:59.539Z,7.80
2019-03-08T07:20:54.246Z,7.80
2019-03-08T07:23:52.452Z,7.90
2019-03-08T07:26:55.691Z,7.90
2019-03-08T07:30:08.290Z,7.90
2019-03-08T07:33:05.188Z,8.10
2019-03-08T07:36:28.074Z,8.10
2019-03-08T07:39:25.518Z,8.10
2019-03-08T07:42:33.070Z,8.10
2019-03-08T07:45:49.955Z,8.30
2019-03-08T07:49:00.779Z,8.40
2019-03-08T07:55:06.731Z,8.20
2019-03-08T07:58:05.755Z,8.50
2019-03-08T08:01:18.825Z,8.70
2019-03-08T08:04:18.254Z,8.70
2019-03-08T08:07:15.238Z,8.60
2019-03-08T08:10:47.767Z,8.60
2019-03-08T08:13:40.638Z,8.50
2019-03-08T08:17:09.011Z,8.40
2019-03-08T08:20:37.093Z,8.60
2019-03-08T08:23:39.848Z,8.80
2019-03-08T08:26:40.793Z,8.80
2019-03-08T08:29:57.532Z,8.90
2019-03-08T08:33:06.318Z,9.10
2019-03-08T08:36:22.163Z,8.90
2019-03-08T08:39:56.844Z,8.80
2019-03-08T08:42:25.313Z,8.90
2019-03-08T08:49:16.894Z,9.10
2019-03-08T08:52:42.742Z,9.10
2019-03-08T08:56:02.222Z,9.20
2019-03-08T08:59:14.177Z,9.60
2019-03-08T09:02:54.589Z,9.80
2019-03-08T09:06:14.461Z,10.00
2019-03-08T09:09:32.641Z,10.60
2019-03-08T09:12:55.282Z,10.80
2019-03-08T09:16:05.290Z,11.10
2019-03-08T09:18:55.273Z,10.60
2019-03-08T09:22:45.152Z,10.20
2019-03-08T09:26:07.811Z,9.90
2019-03-08T09:29:07.588Z,9.50
2019-03-08T09:32:19.922Z,9.50
2019-03-08T09:35:29.218Z,10.40
2019-03-08T09:38:43.336Z,10.70
2019-03-08T09:45:49.182Z,12.50
2019-03-08T09:49:27.306Z,12.70
2019-03-08T09:52:40.797Z,12.60
2019-03-08T09:55:52.204Z,12.50
2019-03-08T09:59:16.837Z,12.30
2019-03-08T10:03:01.042Z,11.50
2019-03-08T10:06:38.757Z,11.20
2019-03-08T10:10:25.632Z,11.10
2019-03-08T10:21:06.256Z,10.80
2019-03-08T10:24:12.171Z,10.40
2019-03-08T10:27:27.961Z,9.70
2019-03-08T10:30:38.083Z,9.70
2019-03-08T10:33:46.950Z,9.30
2019-03-08T10:37:09.528Z,9.40
2019-03-08T10:40:09.885Z,9.50
2019-03-08T10:43:14.383Z,9.50
2019-03-08T10:46:48.048Z,9.30
2019-03-08T10:50:26.262Z,9.20
2019-03-08T10:54:15.182Z,8.50
2019-03-08T10:57:45.552Z,9.00
2019-03-08T11:01:30.693Z,9.10
2019-03-08T11:04:35.813Z,9.40
2019-03-08T11:07:52.698Z,9.50
2019-03-08T11:10:43.507Z,9.70
2019-03-08T11:13:53.704Z,9.80
2019-03-08T11:16:43.436Z,10.50
2019-03-08T11:19:37.880Z,11.30
2019-03-08T11:22:36.466Z,12.00
2019-03-08T11:25:44.460Z,12.20
2019-03-08T11:28:40.404Z,12.20
2019-03-08T11:35:14.628Z,12.10
2019-03-08T11:38:35.561Z,12.50
2019-03-08T11:45:46.869Z,13.70
2019-03-08T11:48:58.862Z,13.60
2019-03-08T11:51:49.388Z,13.80
2019-03-08T11:55:12.127Z,13.70
2019-03-08T11:58:29.093Z,13.80
2019-03-08T12:01:34.122Z,13.80
2019-03-08T12:05:01.099Z,13.80
2019-03-08T12:08:29.304Z,13.50
2019-03-08T12:15:30.915Z,13.60
2019-03-08T12:18:46.993Z,13.30
2019-03-08T12:21:57.469Z,13.20
2019-03-08T12:25:07.724Z,13.40
2019-03-08T12:28:49.225Z,13.40
2019-03-08T12:32:09.689Z,12.90
2019-03-08T12:35:22.851Z,12.30
2019-03-08T12:39:05.393Z,11.90
2019-03-08T12:42:25.203Z,11.60
2019-03-08T13:11:32.572Z,13.10
2019-03-08T13:14:23.733Z,13.10
2019-03-08T13:18:16.388Z,13.20
2019-03-08T13:32:22.652Z,12.50
2019-03-08T13:46:34.900Z,12.10
2019-03-08T13:49:27.426Z,11.50
2019-03-08T13:52:22.249Z,12.00
2019-03-08T13:55:09.814Z,12.20
2019-03-08T13:58:09.052Z,12.10
2019-03-08T14:01:20.759Z,11.90
2019-03-08T14:04:03.847Z,11.50
2019-03-08T14:07:07.848Z,11.40
2019-03-08T14:13:06.795Z,11.60
2019-03-08T14:16:01.496Z,11.60
2019-03-08T14:18:58.164Z,11.60
2019-03-08T14:21:40.464Z,11.60
2019-03-08T14:29:01.113Z,11.40
2019-03-08T14:39:30.472Z,11.50
2019-03-08T14:40:33.353Z,11.40
2019-03-08T14:42:36.919Z,11.60
2019-03-08T14:45:44.523Z,11.60
2019-03-08T14:48:42.445Z,11.60
2019-03-08T14:52:16.766Z,11.60
2019-03-08T14:55:25.633Z,11.60
2019-03-08T14:58:17.732Z,11.60
2019-03-08T15:01:23.313Z,11.50
2019-03-08T15:04:29.484Z,11.50
2019-03-08T15:07:54.632Z,11.40
2019-03-08T15:10:51.438Z,11.30
2019-03-08T15:13:52.418Z,11.30
2019-03-08T15:16:45.723Z,11.20
2019-03-08T15:19:27.808Z,11.20
2019-03-08T15:26:13.542Z,11.10
2019-03-08T15:29:16.272Z,11.10
2019-03-08T15:32:53.395Z,11.10
2019-03-08T15:36:09.503Z,11.00
2019-03-08T15:39:00.953Z,11.00
2019-03-08T15:45:24.079Z,10.90
2019-03-08T15:48:11.043Z,10.80
2019-03-08T15:50:59.505Z,10.70
2019-03-08T15:54:02.048Z,10.70
2019-03-08T15:57:20.281Z,10.70
2019-03-08T16:00:24.691Z,10.60
2019-03-08T16:03:17.930Z,10.60
2019-03-08T16:06:14.941Z,10.50
2019-03-08T16:09:16.429Z,10.50
2019-03-08T16:13:02.567Z,10.50
2019-03-08T16:16:25.636Z,10.60
2019-03-08T16:19:16.807Z,10.60
2019-03-08T16:22:17.425Z,10.70
2019-03-08T16:25:08.359Z,10.50
2019-03-08T16:27:48.415Z,10.50
2019-03-08T16:30:48.972Z,10.50
2019-03-08T16:33:42.670Z,10.50
2019-03-08T16:36:57.536Z,10.50
2019-03-08T16:39:51.575Z,10.50
2019-03-08T16:46:32.998Z,10.40
2019-03-08T16:53:29.434Z,10.40
2019-03-08T16:56:15.571Z,10.50
2019-03-08T16:59:19.076Z,10.50
2019-03-08T17:08:30.652Z,10.40
2019-03-08T17:15:12.326Z,10.30
2019-03-08T17:18:40.068Z,10.30
2019-03-08T17:21:45.545Z,10.30
2019-03-08T17:24:59.165Z,10.20
2019-03-08T17:28:10.044Z,10.20
2019-03-08T17:31:37.300Z,10.20
2019-03-08T17:35:08.496Z,10.20
2019-03-08T17:38:31.366Z,10.20
2019-03-08T17:41:34.569Z,10.20
2019-03-08T17:44:36.617Z,10.20
2019-03-08T17:48:03.808Z,10.10
2019-03-08T17:51:19.782Z,10.10
2019-03-08T17:54:41.349Z,10.20
2019-03-08T17:58:08.153Z,10.20
2019-03-08T18:07:47.362Z,10.20
2019-03-08T18:12:21.077Z,10.20
2019-03-08T18:15:37.254Z,10.20
2019-03-08T18:22:25.401Z,10.10
2019-03-08T18:26:27.308Z,10.00
2019-03-08T18:29:54.703Z,10.00
2019-03-08T18:33:07.464Z,10.10
2019-03-08T18:37:08.798Z,9.80
2019-03-08T18:40:00.046Z,9.80
2019-03-08T18:43:35.662Z,9.80
2019-03-08T18:50:26.462Z,9.20
2019-03-08T18:53:58.160Z,9.60
2019-03-08T18:57:18.762Z,9.60
2019-03-08T19:04:58.432Z,9.50
2019-03-08T19:07:51.183Z,9.50
2019-03-08T19:17:33.875Z,9.40
2019-03-08T19:22:26.471Z,9.30
2019-03-08T19:26:08.328Z,9.60
2019-03-08T19:33:29.115Z,9.40
2019-03-08T19:36:36.461Z,9.40
2019-03-08T19:40:46.194Z,9.40
2019-03-08T19:44:36.279Z,9.40
2019-03-08T19:48:09.447Z,9.40
2019-03-08T19:55:41.206Z,9.30
2019-03-08T19:59:28.529Z,9.40
2019-03-08T20:15:02.334Z,9.40
2019-03-08T20:17:59.313Z,9.40
2019-03-08T20:22:11.697Z,9.40
2019-03-08T20:37:19.877Z,9.40
2019-03-08T20:44:58.736Z,9.40
2019-03-08T20:48:08.986Z,11.00
2019-03-08T20:51:43.161Z,11.70
2019-03-08T20:54:49.854Z,12.20
2019-03-08T20:58:05.340Z,12.30
2019-03-08T21:01:46.909Z,12.50
2019-03-08T21:05:03.678Z,12.50
2019-03-08T21:08:51.972Z,12.90
2019-03-08T21:19:43.659Z,10.40
2019-03-08T21:22:54.660Z,9.90
2019-03-08T21:30:26.187Z,9.60
2019-03-08T21:37:13.495Z,9.50
2019-03-08T21:40:06.914Z,9.50
2019-03-08T21:42:56.403Z,9.40
2019-03-08T21:46:33.999Z,9.30
2019-03-08T21:49:35.217Z,9.30
2019-03-08T21:52:33.613Z,9.20
2019-03-08T21:55:35.337Z,9.20
2019-03-08T21:58:31.424Z,9.20
2019-03-08T22:02:15.681Z,9.20
2019-03-08T22:05:23.862Z,9.40
2019-03-08T22:08:02.383Z,9.50
2019-03-08T22:11:16.506Z,9.60
2019-03-08T22:14:00.784Z,9.60
2019-03-08T22:16:40.814Z,9.60
2019-03-08T22:19:23.510Z,9.60
2019-03-08T22:22:14.651Z,9.60
2019-03-08T22:24:49.505Z,9.60
2019-03-08T22:27:38.211Z,9.60
2019-03-08T22:30:14.433Z,9.50
2019-03-08T22:32:54.044Z,9.50
2019-03-08T22:35:37.065Z,9.50
2019-03-08T22:38:15.886Z,9.50
2019-03-08T22:40:56.656Z,9.40
2019-03-08T22:43:38.405Z,9.40
2019-03-08T22:46:57.086Z,9.40
2019-03-08T22:49:45.711Z,9.40
2019-03-08T22:52:34.289Z,9.30
2019-03-08T22:55:20.499Z,9.30
2019-03-08T22:58:22.860Z,9.20
2019-03-08T23:01:19.200Z,9.20
2019-03-08T23:04:01.621Z,9.30
2019-03-08T23:06:48.667Z,9.30
2019-03-08T23:09:39.864Z,9.30
2019-03-08T23:12:27.027Z,9.30
2019-03-08T23:15:06.995Z,9.30
2019-03-08T23:17:44.485Z,9.30
2019-03-08T23:20:25.279Z,9.30
2019-03-08T23:23:35.004Z,9.30
2019-03-08T23:26:22.944Z,9.30
2019-03-08T23:29:17.760Z,9.20
2019-03-08T23:32:27.173Z,9.20
2019-03-08T23:35:07.839Z,9.30
2019-03-08T23:37:59.118Z,9.30
2019-03-08T23:41:18.979Z,9.30
2019-03-08T23:44:09.872Z,9.30
2019-03-08T23:47:31.912Z,9.30
2019-03-08T23:50:16.354Z,9.30
2019-03-08T23:53:30.995Z,9.30
2019-03-08T23:56:23.222Z,9.30
2019-03-08T23:59:17.000Z,9.30
